sensor_id;sensor_type;location;lat;lon;timestamp;P1;durP1;ratioP1;P2;durP2;ratioP2
577;SDS011;275;48.492;9.214;2022-12-05T00:01:19;24.52;;;22.13;;
577;SDS011;275;48.492;9.214;2022-12-05T00:03:49;26.42;;;23.83;;
577;SDS011;275;48.492;9.214;2022-12-05T00:06:18;25.45;;;22.85;;
577;SDS011;275;48.492;9.214;2022-12-05T00:08:46;23.45;;;21.20;;
577;SDS011;275;48.492;9.214;2022-12-05T00:11:14;26.02;;;23.42;;
577;SDS011;275;48.492;9.214;2022-12-05T00:13:44;24.92;;;22.42;;
577;SDS011;275;48.492;9.214;2022-12-05T00:16:12;23.60;;;21.30;;
577;SDS011;275;48.492;9.214;2022-12-05T00:18:41;22.05;;;20.05;;
577;SDS011;275;48.492;9.214;2022-12-05T00:21:10;24.45;;;21.85;;
577;SDS011;275;48.492;9.214;2022-12-05T00:23:39;22.10;;;20.00;;
577;SDS011;275;48.492;9.214;2022-12-05T00:26:06;24.30;;;22.00;;
577;SDS011;275;48.492;9.214;2022-12-05T00:28:33;23.20;;;20.88;;
577;SDS011;275;48.492;9.214;2022-12-05T00:31:00;24.80;;;22.30;;
577;SDS011;275;48.492;9.214;2022-12-05T00:33:28;24.75;;;22.45;;
577;SDS011;275;48.492;9.214;2022-12-05T00:35:56;24.17;;;21.67;;
577;SDS011;275;48.492;9.214;2022-12-05T00:38:26;24.60;;;21.50;;
577;SDS011;275;48.492;9.214;2022-12-05T00:40:53;23.85;;;21.45;;
577;SDS011;275;48.492;9.214;2022-12-05T00:43:20;24.42;;;22.15;;
577;SDS011;275;48.492;9.214;2022-12-05T00:45:47;25.95;;;23.15;;
577;SDS011;275;48.492;9.214;2022-12-05T00:48:14;25.10;;;22.50;;
577;SDS011;275;48.492;9.214;2022-12-05T00:50:40;25.33;;;22.70;;
577;SDS011;275;48.492;9.214;2022-12-05T00:53:09;25.42;;;22.95;;
577;SDS011;275;48.492;9.214;2022-12-05T00:55:35;24.88;;;22.48;;
577;SDS011;275;48.492;9.214;2022-12-05T00:58:02;24.23;;;21.85;;
577;SDS011;275;48.492;9.214;2022-12-05T01:00:29;24.70;;;22.05;;
577;SDS011;275;48.492;9.214;2022-12-05T01:02:56;24.08;;;21.77;;
577;SDS011;275;48.492;9.214;2022-12-05T01:05:23;26.25;;;23.15;;
577;SDS011;275;48.492;9.214;2022-12-05T01:07:49;26.13;;;23.42;;
577;SDS011;275;48.492;9.214;2022-12-05T01:10:18;25.83;;;23.02;;
577;SDS011;275;48.492;9.214;2022-12-05T01:12:44;26.15;;;23.45;;
577;SDS011;275;48.492;9.214;2022-12-05T01:15:11;24.73;;;22.15;;
577;SDS011;275;48.492;9.214;2022-12-05T01:17:38;27.52;;;24.45;;
577;SDS011;275;48.492;9.214;2022-12-05T01:20:05;26.38;;;23.65;;
577;SDS011;275;48.492;9.214;2022-12-05T01:22:33;27.20;;;24.38;;
577;SDS011;275;48.492;9.214;2022-12-05T01:25:00;27.40;;;24.55;;
577;SDS011;275;48.492;9.214;2022-12-05T01:27:28;26.80;;;23.92;;
577;SDS011;275;48.492;9.214;2022-12-05T01:29:55;32.85;;;27.02;;
577;SDS011;275;48.492;9.214;2022-12-05T01:32:22;27.40;;;23.70;;
577;SDS011;275;48.492;9.214;2022-12-05T01:34:49;30.13;;;27.08;;
577;SDS011;275;48.492;9.214;2022-12-05T01:37:16;29.63;;;25.88;;
577;SDS011;275;48.492;9.214;2022-12-05T01:39:43;27.52;;;24.75;;
577;SDS011;275;48.492;9.214;2022-12-05T01:42:10;29.65;;;26.15;;
577;SDS011;275;48.492;9.214;2022-12-05T01:45:01;30.35;;;27.15;;
577;SDS011;275;48.492;9.214;2022-12-05T01:47:32;26.98;;;24.25;;
577;SDS011;275;48.492;9.214;2022-12-05T01:50:02;31.25;;;24.95;;
577;SDS011;275;48.492;9.214;2022-12-05T01:52:30;28.02;;;25.10;;
577;SDS011;275;48.492;9.214;2022-12-05T01:54:59;26.48;;;23.70;;
577;SDS011;275;48.492;9.214;2022-12-05T01:57:30;29.40;;;26.30;;
577;SDS011;275;48.492;9.214;2022-12-05T01:59:59;28.77;;;25.33;;
577;SDS011;275;48.492;9.214;2022-12-05T02:02:33;26.45;;;22.63;;
577;SDS011;275;48.492;9.214;2022-12-05T02:05:01;27.50;;;24.70;;
577;SDS011;275;48.492;9.214;2022-12-05T02:07:30;28.13;;;25.13;;
577;SDS011;275;48.492;9.214;2022-12-05T02:09:58;29.38;;;26.23;;
577;SDS011;275;48.492;9.214;2022-12-05T02:12:25;26.80;;;24.00;;
577;SDS011;275;48.492;9.214;2022-12-05T02:14:58;28.27;;;25.27;;
577;SDS011;275;48.492;9.214;2022-12-05T02:17:35;30.67;;;26.90;;
577;SDS011;275;48.492;9.214;2022-12-05T02:20:23;28.08;;;25.13;;
577;SDS011;275;48.492;9.214;2022-12-05T02:23:01;25.85;;;22.48;;
577;SDS011;275;48.492;9.214;2022-12-05T02:25:59;27.40;;;24.55;;
577;SDS011;275;48.492;9.214;2022-12-05T02:28:55;23.10;;;20.85;;
577;SDS011;275;48.492;9.214;2022-12-05T02:31:47;23.00;;;20.52;;
577;SDS011;275;48.492;9.214;2022-12-05T02:34:19;23.55;;;21.08;;
577;SDS011;275;48.492;9.214;2022-12-05T02:36:53;20.67;;;18.67;;
577;SDS011;275;48.492;9.214;2022-12-05T02:39:26;19.40;;;17.35;;
577;SDS011;275;48.492;9.214;2022-12-05T02:42:02;22.48;;;20.08;;
577;SDS011;275;48.492;9.214;2022-12-05T02:44:34;20.63;;;18.55;;
577;SDS011;275;48.492;9.214;2022-12-05T02:47:07;20.17;;;17.90;;
577;SDS011;275;48.492;9.214;2022-12-05T02:49:37;20.55;;;18.45;;
577;SDS011;275;48.492;9.214;2022-12-05T02:52:08;20.35;;;18.33;;
577;SDS011;275;48.492;9.214;2022-12-05T02:54:39;21.02;;;18.85;;
577;SDS011;275;48.492;9.214;2022-12-05T02:57:09;19.45;;;17.58;;
577;SDS011;275;48.492;9.214;2022-12-05T02:59:37;17.60;;;15.85;;
577;SDS011;275;48.492;9.214;2022-12-05T03:02:04;19.83;;;17.83;;
577;SDS011;275;48.492;9.214;2022-12-05T03:04:46;19.60;;;17.70;;
577;SDS011;275;48.492;9.214;2022-12-05T03:07:13;19.90;;;17.83;;
577;SDS011;275;48.492;9.214;2022-12-05T03:09:42;19.85;;;17.83;;
577;SDS011;275;48.492;9.214;2022-12-05T03:12:14;20.35;;;18.35;;
577;SDS011;275;48.492;9.214;2022-12-05T03:14:44;20.40;;;18.30;;
577;SDS011;275;48.492;9.214;2022-12-05T03:17:15;17.52;;;15.82;;
577;SDS011;275;48.492;9.214;2022-12-05T03:19:47;21.13;;;19.17;;
577;SDS011;275;48.492;9.214;2022-12-05T03:22:19;20.67;;;18.45;;
577;SDS011;275;48.492;9.214;2022-12-05T03:24:51;18.35;;;16.45;;
577;SDS011;275;48.492;9.214;2022-12-05T03:27:20;18.17;;;16.27;;
577;SDS011;275;48.492;9.214;2022-12-05T03:29:51;19.42;;;17.40;;
577;SDS011;275;48.492;9.214;2022-12-05T03:32:23;20.02;;;17.67;;
577;SDS011;275;48.492;9.214;2022-12-05T03:35:01;20.63;;;18.52;;
577;SDS011;275;48.492;9.214;2022-12-05T03:37:34;20.13;;;18.10;;
577;SDS011;275;48.492;9.214;2022-12-05T03:40:10;20.27;;;18.13;;
577;SDS011;275;48.492;9.214;2022-12-05T03:42:45;21.13;;;18.63;;
577;SDS011;275;48.492;9.214;2022-12-05T03:45:19;19.67;;;17.70;;
577;SDS011;275;48.492;9.214;2022-12-05T03:47:55;19.88;;;17.73;;
577;SDS011;275;48.492;9.214;2022-12-05T03:50:32;21.13;;;18.85;;
577;SDS011;275;48.492;9.214;2022-12-05T03:53:03;20.98;;;18.63;;
577;SDS011;275;48.492;9.214;2022-12-05T03:55:33;20.88;;;18.77;;
577;SDS011;275;48.492;9.214;2022-12-05T03:58:05;20.40;;;18.40;;
577;SDS011;275;48.492;9.214;2022-12-05T04:00:36;20.88;;;18.75;;
577;SDS011;275;48.492;9.214;2022-12-05T04:03:08;21.45;;;19.25;;
577;SDS011;275;48.492;9.214;2022-12-05T04:05:39;22.17;;;19.50;;
577;SDS011;275;48.492;9.214;2022-12-05T04:08:12;19.85;;;17.85;;
577;SDS011;275;48.492;9.214;2022-12-05T04:10:43;20.48;;;18.48;;
577;SDS011;275;48.492;9.214;2022-12-05T04:13:18;20.90;;;18.85;;
577;SDS011;275;48.492;9.214;2022-12-05T04:15:52;20.23;;;18.13;;
577;SDS011;275;48.492;9.214;2022-12-05T04:18:43;21.25;;;19.17;;
577;SDS011;275;48.492;9.214;2022-12-05T04:21:14;22.05;;;19.90;;
577;SDS011;275;48.492;9.214;2022-12-05T04:24:00;21.05;;;18.92;;
577;SDS011;275;48.492;9.214;2022-12-05T04:26:43;21.45;;;19.40;;
577;SDS011;275;48.492;9.214;2022-12-05T04:29:16;23.15;;;20.85;;
577;SDS011;275;48.492;9.214;2022-12-05T04:31:47;22.23;;;19.98;;
577;SDS011;275;48.492;9.214;2022-12-05T04:34:21;22.70;;;20.30;;
577;SDS011;275;48.492;9.214;2022-12-05T04:36:50;22.17;;;19.92;;
577;SDS011;275;48.492;9.214;2022-12-05T04:39:22;24.23;;;21.65;;
577;SDS011;275;48.492;9.214;2022-12-05T04:41:54;25.42;;;21.55;;
577;SDS011;275;48.492;9.214;2022-12-05T04:44:26;23.65;;;21.45;;
577;SDS011;275;48.492;9.214;2022-12-05T04:46:59;25.08;;;22.67;;
577;SDS011;275;48.492;9.214;2022-12-05T04:49:30;24.75;;;22.23;;
577;SDS011;275;48.492;9.214;2022-12-05T04:51:59;25.45;;;22.52;;
577;SDS011;275;48.492;9.214;2022-12-05T04:54:29;28.08;;;23.20;;
577;SDS011;275;48.492;9.214;2022-12-05T04:57:01;26.25;;;23.65;;
577;SDS011;275;48.492;9.214;2022-12-05T04:59:35;24.98;;;22.40;;
577;SDS011;275;48.492;9.214;2022-12-05T05:02:02;25.98;;;23.23;;
577;SDS011;275;48.492;9.214;2022-12-05T05:04:35;27.10;;;24.20;;
577;SDS011;275;48.492;9.214;2022-12-05T05:07:05;26.27;;;23.48;;
577;SDS011;275;48.492;9.214;2022-12-05T05:09:33;26.00;;;23.40;;
577;SDS011;275;48.492;9.214;2022-12-05T05:12:00;24.60;;;22.02;;
577;SDS011;275;48.492;9.214;2022-12-05T05:14:27;25.45;;;22.95;;
577;SDS011;275;48.492;9.214;2022-12-05T05:16:54;24.90;;;22.25;;
577;SDS011;275;48.492;9.214;2022-12-05T05:19:21;25.65;;;22.65;;
577;SDS011;275;48.492;9.214;2022-12-05T05:21:50;22.30;;;20.08;;
577;SDS011;275;48.492;9.214;2022-12-05T05:24:18;19.83;;;17.92;;
577;SDS011;275;48.492;9.214;2022-12-05T05:26:47;18.80;;;16.88;;
577;SDS011;275;48.492;9.214;2022-12-05T05:29:15;19.23;;;17.27;;
577;SDS011;275;48.492;9.214;2022-12-05T05:31:42;19.10;;;17.23;;
577;SDS011;275;48.492;9.214;2022-12-05T05:34:09;18.42;;;16.63;;
577;SDS011;275;48.492;9.214;2022-12-05T05:36:39;19.40;;;17.45;;
577;SDS011;275;48.492;9.214;2022-12-05T05:39:09;18.67;;;16.85;;
577;SDS011;275;48.492;9.214;2022-12-05T05:41:39;20.40;;;18.40;;
577;SDS011;275;48.492;9.214;2022-12-05T05:44:06;20.60;;;18.60;;
577;SDS011;275;48.492;9.214;2022-12-05T05:46:33;21.65;;;19.67;;
577;SDS011;275;48.492;9.214;2022-12-05T05:49:01;19.05;;;17.25;;
577;SDS011;275;48.492;9.214;2022-12-05T05:51:29;17.52;;;15.82;;
577;SDS011;275;48.492;9.214;2022-12-05T05:53:56;17.00;;;15.40;;
577;SDS011;275;48.492;9.214;2022-12-05T05:56:25;17.63;;;16.02;;
577;SDS011;275;48.492;9.214;2022-12-05T05:58:56;16.52;;;14.82;;
577;SDS011;275;48.492;9.214;2022-12-05T06:01:24;17.38;;;15.68;;
577;SDS011;275;48.492;9.214;2022-12-05T06:03:52;18.60;;;16.85;;
577;SDS011;275;48.492;9.214;2022-12-05T06:06:19;16.40;;;14.90;;
577;SDS011;275;48.492;9.214;2022-12-05T06:08:46;15.70;;;14.30;;
577;SDS011;275;48.492;9.214;2022-12-05T06:11:14;16.25;;;14.75;;
577;SDS011;275;48.492;9.214;2022-12-05T06:13:43;17.50;;;15.80;;
577;SDS011;275;48.492;9.214;2022-12-05T06:16:12;18.02;;;16.20;;
577;SDS011;275;48.492;9.214;2022-12-05T06:18:40;19.05;;;17.25;;
577;SDS011;275;48.492;9.214;2022-12-05T06:21:07;19.02;;;17.13;;
577;SDS011;275;48.492;9.214;2022-12-05T06:23:35;21.48;;;19.33;;
577;SDS011;275;48.492;9.214;2022-12-05T06:26:04;20.98;;;18.77;;
577;SDS011;275;48.492;9.214;2022-12-05T06:28:35;21.20;;;18.92;;
577;SDS011;275;48.492;9.214;2022-12-05T06:31:06;20.10;;;18.10;;
577;SDS011;275;48.492;9.214;2022-12-05T06:33:33;18.02;;;16.25;;
577;SDS011;275;48.492;9.214;2022-12-05T06:36:01;17.77;;;16.17;;
577;SDS011;275;48.492;9.214;2022-12-05T06:38:29;20.58;;;18.58;;
577;SDS011;275;48.492;9.214;2022-12-05T06:40:55;23.35;;;21.05;;
577;SDS011;275;48.492;9.214;2022-12-05T06:43:22;19.58;;;17.45;;
577;SDS011;275;48.492;9.214;2022-12-05T06:45:49;20.13;;;18.13;;
577;SDS011;275;48.492;9.214;2022-12-05T06:48:17;21.05;;;19.10;;
577;SDS011;275;48.492;9.214;2022-12-05T06:50:48;20.50;;;18.42;;
577;SDS011;275;48.492;9.214;2022-12-05T06:53:15;23.13;;;20.80;;
577;SDS011;275;48.492;9.214;2022-12-05T06:55:42;18.98;;;16.98;;
577;SDS011;275;48.492;9.214;2022-12-05T06:58:09;19.92;;;18.02;;
577;SDS011;275;48.492;9.214;2022-12-05T07:00:36;18.88;;;16.90;;
577;SDS011;275;48.492;9.214;2022-12-05T07:03:21;18.42;;;16.60;;
577;SDS011;275;48.492;9.214;2022-12-05T07:05:48;18.05;;;16.25;;
577;SDS011;275;48.492;9.214;2022-12-05T07:08:15;20.90;;;19.00;;
577;SDS011;275;48.492;9.214;2022-12-05T07:10:48;19.73;;;17.67;;
577;SDS011;275;48.492;9.214;2022-12-05T07:13:16;19.65;;;17.65;;
577;SDS011;275;48.492;9.214;2022-12-05T07:15:44;20.67;;;18.58;;
577;SDS011;275;48.492;9.214;2022-12-05T07:18:11;19.13;;;17.33;;
577;SDS011;275;48.492;9.214;2022-12-05T07:20:40;18.73;;;16.90;;
577;SDS011;275;48.492;9.214;2022-12-05T07:23:07;18.83;;;17.05;;
577;SDS011;275;48.492;9.214;2022-12-05T07:25:37;15.90;;;14.30;;
577;SDS011;275;48.492;9.214;2022-12-05T07:28:05;16.85;;;15.40;;
577;SDS011;275;48.492;9.214;2022-12-05T07:30:32;15.23;;;13.73;;
577;SDS011;275;48.492;9.214;2022-12-05T07:32:59;15.40;;;14.00;;
577;SDS011;275;48.492;9.214;2022-12-05T07:35:26;16.90;;;15.10;;
577;SDS011;275;48.492;9.214;2022-12-05T07:37:54;13.85;;;12.45;;
577;SDS011;275;48.492;9.214;2022-12-05T07:40:21;14.18;;;12.98;;
577;SDS011;275;48.492;9.214;2022-12-05T07:42:47;14.75;;;13.35;;
577;SDS011;275;48.492;9.214;2022-12-05T07:45:14;14.88;;;13.48;;
577;SDS011;275;48.492;9.214;2022-12-05T07:47:41;14.88;;;13.57;;
577;SDS011;275;48.492;9.214;2022-12-05T07:50:08;13.80;;;12.50;;
577;SDS011;275;48.492;9.214;2022-12-05T07:52:35;14.25;;;12.93;;
577;SDS011;275;48.492;9.214;2022-12-05T07:55:04;15.63;;;14.10;;
577;SDS011;275;48.492;9.214;2022-12-05T07:57:32;13.95;;;12.65;;
577;SDS011;275;48.492;9.214;2022-12-05T07:59:59;12.98;;;11.88;;
577;SDS011;275;48.492;9.214;2022-12-05T08:02:26;14.77;;;13.38;;
577;SDS011;275;48.492;9.214;2022-12-05T08:04:52;14.45;;;13.10;;
577;SDS011;275;48.492;9.214;2022-12-05T08:07:19;14.90;;;12.98;;
577;SDS011;275;48.492;9.214;2022-12-05T08:09:46;12.60;;;11.50;;
577;SDS011;275;48.492;9.214;2022-12-05T08:12:14;14.15;;;12.95;;
577;SDS011;275;48.492;9.214;2022-12-05T08:14:41;13.50;;;12.20;;
577;SDS011;275;48.492;9.214;2022-12-05T08:17:08;13.70;;;12.50;;
577;SDS011;275;48.492;9.214;2022-12-05T08:19:35;14.52;;;13.05;;
577;SDS011;275;48.492;9.214;2022-12-05T08:22:01;13.73;;;12.38;;
577;SDS011;275;48.492;9.214;2022-12-05T08:24:28;13.57;;;12.27;;
577;SDS011;275;48.492;9.214;2022-12-05T08:26:55;10.95;;;10.05;;
577;SDS011;275;48.492;9.214;2022-12-05T08:29:24;10.75;;;9.60;;
577;SDS011;275;48.492;9.214;2022-12-05T08:31:50;10.98;;;10.00;;
577;SDS011;275;48.492;9.214;2022-12-05T08:34:18;11.40;;;10.40;;
577;SDS011;275;48.492;9.214;2022-12-05T08:36:46;11.15;;;10.25;;
577;SDS011;275;48.492;9.214;2022-12-05T08:39:13;11.27;;;10.27;;
577;SDS011;275;48.492;9.214;2022-12-05T08:41:42;12.98;;;11.55;;
577;SDS011;275;48.492;9.214;2022-12-05T08:44:09;11.68;;;10.68;;
577;SDS011;275;48.492;9.214;2022-12-05T08:46:41;14.60;;;13.30;;
577;SDS011;275;48.492;9.214;2022-12-05T08:49:10;15.13;;;13.63;;
577;SDS011;275;48.492;9.214;2022-12-05T08:51:37;12.60;;;11.52;;
577;SDS011;275;48.492;9.214;2022-12-05T08:54:04;15.23;;;13.68;;
577;SDS011;275;48.492;9.214;2022-12-05T08:56:31;14.05;;;12.73;;
577;SDS011;275;48.492;9.214;2022-12-05T08:58:59;15.95;;;14.35;;
577;SDS011;275;48.492;9.214;2022-12-05T09:01:26;17.42;;;15.13;;
577;SDS011;275;48.492;9.214;2022-12-05T09:03:57;16.00;;;14.50;;
577;SDS011;275;48.492;9.214;2022-12-05T09:06:25;18.55;;;16.35;;
577;SDS011;275;48.492;9.214;2022-12-05T09:08:53;15.23;;;13.73;;
577;SDS011;275;48.492;9.214;2022-12-05T09:11:22;14.57;;;13.10;;
577;SDS011;275;48.492;9.214;2022-12-05T09:13:51;16.80;;;14.77;;
577;SDS011;275;48.492;9.214;2022-12-05T09:16:19;16.23;;;14.68;;
577;SDS011;275;48.492;9.214;2022-12-05T09:18:47;17.17;;;14.65;;
577;SDS011;275;48.492;9.214;2022-12-05T09:21:17;17.35;;;15.45;;
577;SDS011;275;48.492;9.214;2022-12-05T09:23:45;22.98;;;16.30;;
577;SDS011;275;48.492;9.214;2022-12-05T09:26:13;16.20;;;14.80;;
577;SDS011;275;48.492;9.214;2022-12-05T09:28:41;17.58;;;15.88;;
577;SDS011;275;48.492;9.214;2022-12-05T09:31:09;17.90;;;16.13;;
577;SDS011;275;48.492;9.214;2022-12-05T09:33:38;19.33;;;17.48;;
577;SDS011;275;48.492;9.214;2022-12-05T09:36:05;25.42;;;20.10;;
577;SDS011;275;48.492;9.214;2022-12-05T09:38:35;17.92;;;16.10;;
577;SDS011;275;48.492;9.214;2022-12-05T09:41:04;19.20;;;17.50;;
577;SDS011;275;48.492;9.214;2022-12-05T09:43:47;20.00;;;18.10;;
577;SDS011;275;48.492;9.214;2022-12-05T09:46:25;19.15;;;16.92;;
577;SDS011;275;48.492;9.214;2022-12-05T09:48:59;16.40;;;14.80;;
577;SDS011;275;48.492;9.214;2022-12-05T09:51:29;15.82;;;14.43;;
577;SDS011;275;48.492;9.214;2022-12-05T09:53:58;17.33;;;15.52;;
577;SDS011;275;48.492;9.214;2022-12-05T09:56:26;14.93;;;13.43;;
577;SDS011;275;48.492;9.214;2022-12-05T09:58:55;17.65;;;15.80;;
577;SDS011;275;48.492;9.214;2022-12-05T10:01:26;15.00;;;13.50;;
577;SDS011;275;48.492;9.214;2022-12-05T10:06:53;14.15;;;12.75;;
577;SDS011;275;48.492;9.214;2022-12-05T10:09:36;17.52;;;15.85;;
577;SDS011;275;48.492;9.214;2022-12-05T10:12:14;18.55;;;16.77;;
577;SDS011;275;48.492;9.214;2022-12-05T10:14:51;20.13;;;18.33;;
577;SDS011;275;48.492;9.214;2022-12-05T10:17:27;20.50;;;18.60;;
577;SDS011;275;48.492;9.214;2022-12-05T10:19:59;16.88;;;15.30;;
577;SDS011;275;48.492;9.214;2022-12-05T10:22:29;15.75;;;14.20;;
577;SDS011;275;48.492;9.214;2022-12-05T10:25:05;20.80;;;18.80;;
577;SDS011;275;48.492;9.214;2022-12-05T10:27:36;15.63;;;14.02;;
577;SDS011;275;48.492;9.214;2022-12-05T10:30:06;16.95;;;15.30;;
577;SDS011;275;48.492;9.214;2022-12-05T10:32:42;14.02;;;12.77;;
577;SDS011;275;48.492;9.214;2022-12-05T10:35:18;11.63;;;10.63;;
577;SDS011;275;48.492;9.214;2022-12-05T10:37:47;15.27;;;13.88;;
577;SDS011;275;48.492;9.214;2022-12-05T10:40:17;18.65;;;16.95;;
577;SDS011;275;48.492;9.214;2022-12-05T10:42:45;12.73;;;11.52;;
577;SDS011;275;48.492;9.214;2022-12-05T10:45:14;14.00;;;12.60;;
577;SDS011;275;48.492;9.214;2022-12-05T10:47:44;15.23;;;13.82;;
577;SDS011;275;48.492;9.214;2022-12-05T10:52:51;15.00;;;13.50;;
577;SDS011;275;48.492;9.214;2022-12-05T10:55:20;14.75;;;13.15;;
577;SDS011;275;48.492;9.214;2022-12-05T10:57:48;11.93;;;10.88;;
577;SDS011;275;48.492;9.214;2022-12-05T11:00:19;11.55;;;10.38;;
577;SDS011;275;48.492;9.214;2022-12-05T11:02:47;11.48;;;10.43;;
577;SDS011;275;48.492;9.214;2022-12-05T11:05:16;15.95;;;14.48;;
577;SDS011;275;48.492;9.214;2022-12-05T11:07:53;10.77;;;9.82;;
577;SDS011;275;48.492;9.214;2022-12-05T11:10:24;11.50;;;10.40;;
577;SDS011;275;48.492;9.214;2022-12-05T11:12:59;11.25;;;10.15;;
577;SDS011;275;48.492;9.214;2022-12-05T11:15:27;11.10;;;10.10;;
577;SDS011;275;48.492;9.214;2022-12-05T11:17:56;16.15;;;14.55;;
577;SDS011;275;48.492;9.214;2022-12-05T11:20:33;12.82;;;11.70;;
577;SDS011;275;48.492;9.214;2022-12-05T11:23:14;13.55;;;12.30;;
577;SDS011;275;48.492;9.214;2022-12-05T11:25:51;20.17;;;18.13;;
577;SDS011;275;48.492;9.214;2022-12-05T11:28:23;16.08;;;14.52;;
577;SDS011;275;48.492;9.214;2022-12-05T11:30:59;14.48;;;13.10;;
577;SDS011;275;48.492;9.214;2022-12-05T11:33:28;14.70;;;13.20;;
577;SDS011;275;48.492;9.214;2022-12-05T11:35:58;20.95;;;18.75;;
577;SDS011;275;48.492;9.214;2022-12-05T11:38:30;17.38;;;15.82;;
577;SDS011;275;48.492;9.214;2022-12-05T11:41:02;25.55;;;23.05;;
577;SDS011;275;48.492;9.214;2022-12-05T11:43:47;16.08;;;14.57;;
577;SDS011;275;48.492;9.214;2022-12-05T11:46:33;12.90;;;11.80;;
577;SDS011;275;48.492;9.214;2022-12-05T11:49:16;14.07;;;12.88;;
577;SDS011;275;48.492;9.214;2022-12-05T11:51:53;13.43;;;12.18;;
577;SDS011;275;48.492;9.214;2022-12-05T11:54:41;10.30;;;7.80;;
577;SDS011;275;48.492;9.214;2022-12-05T11:57:25;12.20;;;10.40;;
577;SDS011;275;48.492;9.214;2022-12-05T12:00:04;10.50;;;9.50;;
577;SDS011;275;48.492;9.214;2022-12-05T12:02:42;7.60;;;6.72;;
577;SDS011;275;48.492;9.214;2022-12-05T12:05:49;7.72;;;6.63;;
577;SDS011;275;48.492;9.214;2022-12-05T12:08:24;7.97;;;7.15;;
577;SDS011;275;48.492;9.214;2022-12-05T12:10:55;7.35;;;6.65;;
577;SDS011;275;48.492;9.214;2022-12-05T12:13:41;6.20;;;5.47;;
577;SDS011;275;48.492;9.214;2022-12-05T12:16:20;20.60;;;18.48;;
577;SDS011;275;48.492;9.214;2022-12-05T12:18:58;8.18;;;7.38;;
577;SDS011;275;48.492;9.214;2022-12-05T12:21:38;10.40;;;8.48;;
577;SDS011;275;48.492;9.214;2022-12-05T12:24:15;8.27;;;7.47;;
577;SDS011;275;48.492;9.214;2022-12-05T12:26:53;8.50;;;7.68;;
577;SDS011;275;48.492;9.214;2022-12-05T12:29:30;10.88;;;9.18;;
577;SDS011;275;48.492;9.214;2022-12-05T12:32:10;16.33;;;14.68;;
577;SDS011;275;48.492;9.214;2022-12-05T12:34:49;13.13;;;11.95;;
577;SDS011;275;48.492;9.214;2022-12-05T12:37:30;8.13;;;7.32;;
577;SDS011;275;48.492;9.214;2022-12-05T12:40:03;12.30;;;11.07;;
577;SDS011;275;48.492;9.214;2022-12-05T12:42:39;10.88;;;9.10;;
577;SDS011;275;48.492;9.214;2022-12-05T12:45:25;6.38;;;5.78;;
577;SDS011;275;48.492;9.214;2022-12-05T12:48:08;6.30;;;5.70;;
577;SDS011;275;48.492;9.214;2022-12-05T12:50:49;4.45;;;4.05;;
577;SDS011;275;48.492;9.214;2022-12-05T12:53:27;9.57;;;8.50;;
577;SDS011;275;48.492;9.214;2022-12-05T12:56:04;7.20;;;6.43;;
577;SDS011;275;48.492;9.214;2022-12-05T12:58:46;10.18;;;9.10;;
577;SDS011;275;48.492;9.214;2022-12-05T13:01:21;8.20;;;5.75;;
577;SDS011;275;48.492;9.214;2022-12-05T13:03:56;25.73;;;22.90;;
577;SDS011;275;48.492;9.214;2022-12-05T13:06:28;14.43;;;12.95;;
577;SDS011;275;48.492;9.214;2022-12-05T13:09:03;7.47;;;4.30;;
577;SDS011;275;48.492;9.214;2022-12-05T13:11:34;12.85;;;11.32;;
577;SDS011;275;48.492;9.214;2022-12-05T13:14:07;9.45;;;8.27;;
577;SDS011;275;48.492;9.214;2022-12-05T13:16:39;11.05;;;10.02;;
577;SDS011;275;48.492;9.214;2022-12-05T13:19:12;11.85;;;9.35;;
577;SDS011;275;48.492;9.214;2022-12-05T13:21:49;8.75;;;6.10;;
577;SDS011;275;48.492;9.214;2022-12-05T13:24:16;5.68;;;4.03;;
577;SDS011;275;48.492;9.214;2022-12-05T13:26:47;3.45;;;3.05;;
577;SDS011;275;48.492;9.214;2022-12-05T13:29:17;3.33;;;2.80;;
577;SDS011;275;48.492;9.214;2022-12-05T13:31:47;5.50;;;4.35;;
577;SDS011;275;48.492;9.214;2022-12-05T13:37:10;5.93;;;4.80;;
577;SDS011;275;48.492;9.214;2022-12-05T13:40:01;5.85;;;5.35;;
577;SDS011;275;48.492;9.214;2022-12-05T13:42:47;4.97;;;4.28;;
577;SDS011;275;48.492;9.214;2022-12-05T13:45:24;4.72;;;3.88;;
577;SDS011;275;48.492;9.214;2022-12-05T13:47:53;10.10;;;9.00;;
577;SDS011;275;48.492;9.214;2022-12-05T13:50:31;8.20;;;7.40;;
577;SDS011;275;48.492;9.214;2022-12-05T13:53:01;9.98;;;8.98;;
577;SDS011;275;48.492;9.214;2022-12-05T13:55:53;8.43;;;7.60;;
577;SDS011;275;48.492;9.214;2022-12-05T13:58:40;12.30;;;8.33;;
577;SDS011;275;48.492;9.214;2022-12-05T14:04:22;15.63;;;14.02;;
577;SDS011;275;48.492;9.214;2022-12-05T14:07:05;6.00;;;5.35;;
577;SDS011;275;48.492;9.214;2022-12-05T14:09:47;6.18;;;5.43;;
577;SDS011;275;48.492;9.214;2022-12-05T14:12:28;10.15;;;8.88;;
577;SDS011;275;48.492;9.214;2022-12-05T14:15:22;10.00;;;8.98;;
577;SDS011;275;48.492;9.214;2022-12-05T14:18:04;8.18;;;7.38;;
577;SDS011;275;48.492;9.214;2022-12-05T14:23:40;8.30;;;7.32;;
577;SDS011;275;48.492;9.214;2022-12-05T14:26:23;10.88;;;9.30;;
577;SDS011;275;48.492;9.214;2022-12-05T14:29:15;8.85;;;8.00;;
577;SDS011;275;48.492;9.214;2022-12-05T14:31:55;8.75;;;8.00;;
577;SDS011;275;48.492;9.214;2022-12-05T14:34:31;10.00;;;9.00;;
577;SDS011;275;48.492;9.214;2022-12-05T14:37:05;9.70;;;8.85;;
577;SDS011;275;48.492;9.214;2022-12-05T14:39:46;6.65;;;6.05;;
577;SDS011;275;48.492;9.214;2022-12-05T14:42:20;8.25;;;7.40;;
577;SDS011;275;48.492;9.214;2022-12-05T14:44:52;8.07;;;7.22;;
577;SDS011;275;48.492;9.214;2022-12-05T14:47:22;7.53;;;6.82;;
577;SDS011;275;48.492;9.214;2022-12-05T14:49:54;7.00;;;5.40;;
577;SDS011;275;48.492;9.214;2022-12-05T14:52:27;5.47;;;4.40;;
577;SDS011;275;48.492;9.214;2022-12-05T14:55:03;13.25;;;10.95;;
577;SDS011;275;48.492;9.214;2022-12-05T14:57:36;8.30;;;7.22;;
577;SDS011;275;48.492;9.214;2022-12-05T15:00:13;7.00;;;5.85;;
577;SDS011;275;48.492;9.214;2022-12-05T15:02:46;10.52;;;9.15;;
577;SDS011;275;48.492;9.214;2022-12-05T15:05:19;21.38;;;19.20;;
577;SDS011;275;48.492;9.214;2022-12-05T15:07:50;7.57;;;6.88;;
577;SDS011;275;48.492;9.214;2022-12-05T15:10:20;5.35;;;4.82;;
577;SDS011;275;48.492;9.214;2022-12-05T15:12:49;7.47;;;6.20;;
577;SDS011;275;48.492;9.214;2022-12-05T15:15:23;8.85;;;7.28;;
577;SDS011;275;48.492;9.214;2022-12-05T15:17:58;5.78;;;5.07;;
577;SDS011;275;48.492;9.214;2022-12-05T15:20:32;6.13;;;5.53;;
577;SDS011;275;48.492;9.214;2022-12-05T15:26:20;5.72;;;5.07;;
577;SDS011;275;48.492;9.214;2022-12-05T15:29:02;5.15;;;3.92;;
577;SDS011;275;48.492;9.214;2022-12-05T15:31:31;5.43;;;4.53;;
577;SDS011;275;48.492;9.214;2022-12-05T15:34:03;7.00;;;6.32;;
577;SDS011;275;48.492;9.214;2022-12-05T15:36:37;6.00;;;5.35;;
577;SDS011;275;48.492;9.214;2022-12-05T15:39:17;8.52;;;6.93;;
577;SDS011;275;48.492;9.214;2022-12-05T15:41:49;6.80;;;6.10;;
577;SDS011;275;48.492;9.214;2022-12-05T15:44:17;9.23;;;8.25;;
577;SDS011;275;48.492;9.214;2022-12-05T15:46:48;9.80;;;8.75;;
577;SDS011;275;48.492;9.214;2022-12-05T15:49:20;12.13;;;11.02;;
577;SDS011;275;48.492;9.214;2022-12-05T15:51:49;8.18;;;7.35;;
577;SDS011;275;48.492;9.214;2022-12-05T15:54:20;15.45;;;13.52;;
577;SDS011;275;48.492;9.214;2022-12-05T15:56:52;7.30;;;6.60;;
577;SDS011;275;48.492;9.214;2022-12-05T15:59:25;4.85;;;4.45;;
577;SDS011;275;48.492;9.214;2022-12-05T16:01:59;7.88;;;7.15;;
577;SDS011;275;48.492;9.214;2022-12-05T16:04:35;7.13;;;6.43;;
577;SDS011;275;48.492;9.214;2022-12-05T16:07:07;7.35;;;6.65;;
577;SDS011;275;48.492;9.214;2022-12-05T16:09:39;7.10;;;6.40;;